Time;durP1;ratioP1;P1;durP2;ratioP2;P2;SDS_P1;SDS_P2;PMS_P1;PMS_P2;Temp;Humidity;BMP_temperature;BMP_pressure;BME280_temperature;BME280_humidity;BME280_pressure;Samples;Min_cycle;Max_cycle;Signal;HPM_P1;HPM_P2
2021/03/15 00:01:10;;;;;;;10.70;5.10;;;7.20;93.60;;;;;;5095185;28;20493;-72
2021/03/15 00:03:38;;;;;;;9.83;4.77;;;7.20;93.60;;;;;;5095008;28;20550;-72
2021/03/15 00:06:05;;;;;;;12.70;4.67;;;7.20;93.50;;;;;;5094960;28;20478;-72
2021/03/15 00:08:32;;;;;;;13.50;5.13;;;7.20;93.70;;;;;;5094923;28;20498;-72
2021/03/15 00:10:58;;;;;;;14.53;4.87;;;7.20;93.70;;;;;;5095252;28;20439;-72
2021/03/15 00:13:26;;;;;;;17.73;5.53;;;7.30;93.80;;;;;;5095047;28;20444;-72
2021/03/15 00:15:54;;;;;;;14.60;4.93;;;7.30;93.90;;;;;;5095179;28;20440;-72
2021/03/15 00:18:20;;;;;;;11.80;5.40;;;7.30;94.00;;;;;;5094460;28;20902;-72
2021/03/15 00:20:47;;;;;;;16.20;5.30;;;7.30;94.10;;;;;;5094780;28;20446;-72
2021/03/15 00:23:14;;;;;;;13.23;5.50;;;7.30;94.10;;;;;;5094661;28;20513;-72
2021/03/15 00:25:40;;;;;;;11.27;4.70;;;7.30;94.30;;;;;;5094642;28;20478;-72
2021/03/15 00:28:07;;;;;;;13.43;5.50;;;7.30;94.30;;;;;;5094606;28;20440;-72
2021/03/15 00:30:34;;;;;;;11.67;5.70;;;7.30;94.50;;;;;;5094165;28;20489;-72
2021/03/15 00:33:00;;;;;;;16.30;4.97;;;7.30;94.60;;;;;;5094597;28;20451;-72
2021/03/15 00:35:27;;;;;;;18.43;5.83;;;7.20;94.60;;;;;;5094366;28;20497;-72
2021/03/15 00:37:53;;;;;;;13.90;6.00;;;7.20;94.80;;;;;;5094477;28;20489;-72
2021/03/15 00:40:21;;;;;;;15.23;5.97;;;7.30;94.90;;;;;;5094391;28;20467;-72
2021/03/15 00:42:49;;;;;;;16.20;5.70;;;7.30;95.00;;;;;;5094306;28;20835;-71
2021/03/15 00:45:17;;;;;;;12.47;5.47;;;7.30;95.00;;;;;;5093951;28;20949;-72
2021/03/15 00:47:44;;;;;;;12.13;5.27;;;7.30;95.10;;;;;;5093894;28;20846;-71
2021/03/15 00:50:15;;;;;;;17.57;5.63;;;7.30;95.10;;;;;;5094138;28;20578;-71
2021/03/15 00:52:41;;;;;;;17.40;7.07;;;7.30;95.20;;;;;;5094158;28;20428;-71
2021/03/15 00:55:08;;;;;;;13.80;5.53;;;7.30;95.20;;;;;;5094087;28;20450;-72
2021/03/15 00:57:35;;;;;;;22.03;7.27;;;7.30;95.40;;;;;;5094055;28;20493;-71
2021/03/15 01:00:01;;;;;;;13.40;5.60;;;7.30;95.40;;;;;;5093958;28;20459;-72
2021/03/15 01:02:27;;;;;;;17.00;6.57;;;7.40;95.40;;;;;;5093912;28;20482;-72
2021/03/15 01:04:54;;;;;;;14.70;5.63;;;7.30;95.40;;;;;;5093795;28;20444;-71
2021/03/15 01:07:20;;;;;;;18.23;6.20;;;7.40;95.40;;;;;;5093997;28;20436;-72
2021/03/15 01:09:46;;;;;;;15.43;6.07;;;7.30;95.40;;;;;;5093800;28;20475;-72
2021/03/15 01:12:13;;;;;;;12.10;6.57;;;7.40;95.50;;;;;;5093541;28;20440;-72
2021/03/15 01:14:39;;;;;;;15.73;6.73;;;7.40;95.40;;;;;;5093810;28;20469;-72
2021/03/15 01:17:06;;;;;;;13.13;7.33;;;7.40;95.50;;;;;;5094082;28;20439;-72
2021/03/15 01:19:32;;;;;;;18.17;6.50;;;7.30;95.50;;;;;;5093687;28;20460;-71
2021/03/15 01:21:59;;;;;;;17.27;7.60;;;7.40;95.60;;;;;;5093603;28;20478;-72
2021/03/15 01:24:26;;;;;;;13.70;6.13;;;7.30;95.60;;;;;;5093684;28;20444;-72
2021/03/15 01:26:52;;;;;;;15.80;7.10;;;7.30;95.80;;;;;;5093645;28;20450;-71
2021/03/15 01:29:18;;;;;;;15.27;6.60;;;7.30;96.00;;;;;;5093578;28;20463;-72
2021/03/15 01:31:44;;;;;;;19.00;7.37;;;7.30;96.10;;;;;;5093623;28;20448;-72
2021/03/15 01:34:10;;;;;;;13.20;6.67;;;7.30;96.30;;;;;;5093284;28;20439;-72
2021/03/15 01:36:37;;;;;;;15.20;7.30;;;7.20;96.50;;;;;;5093573;28;20447;-72
2021/03/15 01:39:04;;;;;;;15.63;6.90;;;7.20;96.50;;;;;;5093442;28;20521;-72
2021/03/15 01:41:31;;;;;;;11.23;6.33;;;7.10;96.50;;;;;;5093261;28;20999;-72
2021/03/15 01:43:57;;;;;;;17.20;6.60;;;7.10;96.60;;;;;;5093433;28;20486;-71
2021/03/15 01:46:23;;;;;;;13.57;6.57;;;6.90;96.60;;;;;;5094841;28;20462;-71
2021/03/15 01:48:50;;;;;;;17.77;6.73;;;6.90;96.90;;;;;;5097574;28;20463;-72
2021/03/15 01:51:17;;;;;;;17.07;7.23;;;6.90;97.00;;;;;;5097538;28;20459;-72
2021/03/15 01:53:45;;;;;;;13.03;7.13;;;7.00;97.20;;;;;;5097580;28;20443;-72
2021/03/15 01:56:12;;;;;;;8.73;6.13;;;7.00;97.20;;;;;;5097190;28;20938;-72
2021/03/15 01:58:39;;;;;;;9.13;5.07;;;7.00;96.80;;;;;;5097339;28;20470;-72
2021/03/15 02:01:06;;;;;;;12.87;6.27;;;7.00;96.80;;;;;;5097383;28;20496;-72
2021/03/15 02:03:32;;;;;;;7.80;5.27;;;7.10;96.70;;;;;;5096976;28;21000;-72
2021/03/15 02:05:58;;;;;;;10.17;4.27;;;7.00;96.60;;;;;;5097193;28;20463;-72
2021/03/15 02:08:25;;;;;;;7.10;4.07;;;7.00;96.60;;;;;;5097198;28;20467;-72
2021/03/15 02:10:51;;;;;;;8.30;4.87;;;7.00;96.40;;;;;;5097228;28;20424;-72
2021/03/15 02:13:28;;;;;;;5.80;3.60;;;6.90;96.40;;;;;;5096869;28;20440;-72
2021/03/15 02:16:02;;;;;;;6.07;4.03;;;6.90;96.50;;;;;;5097408;28;20428;-72
2021/03/15 02:18:37;;;;;;;8.77;4.23;;;6.90;96.50;;;;;;5096750;28;20906;-72
2021/03/15 02:21:39;;;;;;;9.00;3.90;;;6.90;96.50;;;;;;5097025;28;20423;-72
2021/03/15 02:24:13;;;;;;;7.10;5.17;;;6.90;96.60;;;;;;5096974;28;20432;-72
2021/03/15 02:27:23;;;;;;;7.27;4.20;;;6.90;96.60;;;;;;5097008;28;20439;-72
2021/03/15 02:30:19;;;;;;;9.13;4.30;;;6.90;96.60;;;;;;5096840;28;20459;-72
2021/03/15 02:33:19;;;;;;;5.80;4.00;;;6.80;96.80;;;;;;5096846;28;20537;-72
2021/03/15 02:35:46;;;;;;;8.40;5.10;;;6.90;97.00;;;;;;5096461;28;20940;-72
2021/03/15 02:38:14;;;;;;;8.60;3.90;;;6.90;97.10;;;;;;5096673;28;20456;-72
2021/03/15 02:40:43;;;;;;;8.87;4.70;;;7.00;97.20;;;;;;5096590;28;20486;-71
2021/03/15 02:43:14;;;;;;;9.00;4.63;;;7.00;97.10;;;;;;5096500;28;20486;-71
2021/03/15 02:45:41;;;;;;;12.93;5.10;;;7.00;97.10;;;;;;5096629;28;20427;-71
2021/03/15 02:48:11;;;;;;;11.73;4.80;;;7.00;97.10;;;;;;5096179;28;20504;-71
2021/03/15 02:50:40;;;;;;;9.73;5.83;;;7.10;97.20;;;;;;5096399;28;20463;-72
2021/03/15 02:53:10;;;;;;;7.33;4.80;;;7.10;97.20;;;;;;5096507;28;20435;-72
2021/03/15 02:55:38;;;;;;;7.43;5.30;;;7.10;97.10;;;;;;5096411;28;20424;-72
2021/03/15 02:58:06;;;;;;;8.37;4.60;;;7.10;97.10;;;;;;5094941;28;20452;-72
2021/03/15 03:00:33;;;;;;;11.53;5.80;;;7.10;97.20;;;;;;5096263;28;20873;-72
2021/03/15 03:03:02;;;;;;;7.80;5.10;;;7.10;97.30;;;;;;5096383;28;20476;-72
2021/03/15 03:05:29;;;;;;;9.10;5.43;;;7.20;97.40;;;;;;5096126;28;20509;-72
2021/03/15 03:07:58;;;;;;;13.77;6.53;;;7.10;97.30;;;;;;5096266;28;20451;-72
2021/03/15 03:10:27;;;;;;;9.90;6.13;;;7.20;97.50;;;;;;5095788;28;20868;-72
2021/03/15 03:12:55;;;;;;;9.60;5.43;;;7.20;97.40;;;;;;5096131;28;20924;-72
2021/03/15 03:15:24;;;;;;;12.97;5.90;;;7.20;97.40;;;;;;5095881;28;20439;-72
2021/03/15 03:17:51;;;;;;;12.27;7.23;;;7.20;97.50;;;;;;5096092;28;20447;-72
2021/03/15 03:20:20;;;;;;;13.33;6.80;;;7.20;97.50;;;;;;5095648;28;20464;-72
2021/03/15 03:22:50;;;;;;;11.30;6.40;;;7.20;97.60;;;;;;5095714;28;21046;-72
2021/03/15 03:25:18;;;;;;;11.90;6.10;;;7.30;97.60;;;;;;5095934;28;20446;-72
2021/03/15 03:27:53;;;;;;;10.20;6.83;;;7.30;97.50;;;;;;5095753;28;20448;-72
2021/03/15 03:30:22;;;;;;;11.40;7.13;;;7.30;97.50;;;;;;5095739;28;20463;-72
2021/03/15 03:32:50;;;;;;;14.97;8.10;;;7.40;97.30;;;;;;5095701;28;20446;-72
2021/03/15 03:35:17;;;;;;;11.60;7.33;;;7.40;97.30;;;;;;5095690;28;20450;-72
2021/03/15 03:37:43;;;;;;;13.57;7.67;;;7.40;97.20;;;;;;5095622;28;20444;-72
2021/03/15 03:40:10;;;;;;;10.83;8.10;;;7.40;97.30;;;;;;5095463;28;20464;-72
2021/03/15 03:42:36;;;;;;;15.50;8.67;;;7.40;97.30;;;;;;5095420;28;20471;-72
2021/03/15 03:45:04;;;;;;;15.67;7.70;;;7.40;97.50;;;;;;5095450;28;20444;-72
2021/03/15 03:47:31;;;;;;;10.30;7.87;;;7.40;97.60;;;;;;5095448;28;20493;-72
2021/03/15 03:49:57;;;;;;;12.10;8.73;;;7.40;97.70;;;;;;5095261;28;20493;-72
2021/03/15 03:52:27;;;;;;;13.47;9.13;;;7.40;97.80;;;;;;5095293;28;20440;-72
2021/03/15 03:54:57;;;;;;;8.97;8.07;;;7.40;97.80;;;;;;5095568;28;20440;-72
2021/03/15 03:57:30;;;;;;;12.70;10.70;;;7.40;97.80;;;;;;5095243;28;20436;-72
2021/03/15 03:59:58;;;;;;;15.90;9.43;;;7.40;97.90;;;;;;5094803;28;20463;-72
2021/03/15 04:02:27;;;;;;;16.13;9.77;;;7.40;98.00;;;;;;5095033;28;20475;-73
2021/03/15 04:04:59;;;;;;;15.43;10.70;;;7.40;98.00;;;;;;5094981;28;20444;-72
2021/03/15 04:07:27;;;;;;;12.37;10.50;;;7.40;98.10;;;;;;5095041;28;20432;-72
2021/03/15 04:10:00;;;;;;;13.73;10.77;;;7.40;98.10;;;;;;5094123;28;20981;-73
2021/03/15 04:12:28;;;;;;;19.73;10.73;;;7.50;98.10;;;;;;5094972;28;20796;-72
2021/03/15 04:14:57;;;;;;;14.33;11.17;;;7.50;98.10;;;;;;5094876;28;20814;-72
2021/03/15 04:17:27;;;;;;;15.43;10.87;;;7.50;98.00;;;;;;5094480;28;20443;-72
2021/03/15 04:19:59;;;;;;;16.27;11.10;;;7.50;97.90;;;;;;5094972;28;21015;-72
2021/03/15 04:22:27;;;;;;;15.53;10.83;;;7.60;98.00;;;;;;5094684;28;20537;-72
2021/03/15 04:24:55;;;;;;;15.70;10.87;;;7.60;97.90;;;;;;5094738;28;20568;-72
2021/03/15 04:27:22;;;;;;;15.07;11.20;;;7.60;97.80;;;;;;5094421;28;20976;-72
2021/03/15 04:29:50;;;;;;;12.90;11.00;;;7.60;97.80;;;;;;5094449;28;20472;-72
2021/03/15 04:32:17;;;;;;;14.70;11.87;;;7.60;97.80;;;;;;5094853;28;20439;-72
2021/03/15 04:34:45;;;;;;;13.20;11.50;;;7.60;97.90;;;;;;5094199;28;20952;-72
2021/03/15 04:37:12;;;;;;;11.80;10.23;;;7.60;97.90;;;;;;5094214;28;20938;-72
2021/03/15 04:39:39;;;;;;;12.27;10.77;;;7.60;98.20;;;;;;5094336;28;20471;-72
2021/03/15 04:42:06;;;;;;;13.47;11.30;;;7.60;97.90;;;;;;5094314;28;20781;-72
2021/03/15 04:44:33;;;;;;;16.47;12.40;;;7.70;98.00;;;;;;5094004;28;20517;-72
2021/03/15 04:47:00;;;;;;;16.17;11.20;;;7.60;97.90;;;;;;5094242;28;20436;-72
2021/03/15 04:49:28;;;;;;;14.57;12.97;;;7.60;97.90;;;;;;5094209;28;20463;-72
2021/03/15 04:51:57;;;;;;;12.27;10.73;;;7.60;97.70;;;;;;5094996;28;20839;-72
2021/03/15 04:54:23;;;;;;;14.00;11.97;;;7.60;97.80;;;;;;5094157;28;20455;-72
2021/03/15 04:56:53;;;;;;;15.37;10.90;;;7.60;97.70;;;;;;5094165;28;20447;-72
2021/03/15 04:59:20;;;;;;;18.40;11.80;;;7.60;97.80;;;;;;5093758;28;20554;-72
2021/03/15 05:01:48;;;;;;;15.17;11.17;;;7.50;97.70;;;;;;5094072;28;20493;-72
2021/03/15 05:04:16;;;;;;;12.97;11.03;;;7.50;97.70;;;;;;5093923;28;20528;-73
2021/03/15 05:06:43;;;;;;;11.40;10.30;;;7.50;97.50;;;;;;5093557;28;20937;-72
2021/03/15 05:09:13;;;;;;;13.37;10.73;;;7.50;97.30;;;;;;5093881;28;20464;-72
2021/03/15 05:11:41;;;;;;;14.83;10.80;;;7.40;97.00;;;;;;5093954;28;20439;-70
2021/03/15 05:14:08;;;;;;;10.13;9.13;;;7.40;97.00;;;;;;5093907;28;20442;-70
2021/03/15 05:16:36;;;;;;;10.40;9.20;;;7.40;97.00;;;;;;5093781;28;20444;-70
2021/03/15 05:19:03;;;;;;;8.77;7.97;;;7.30;96.90;;;;;;5093961;28;20459;-70
2021/03/15 05:21:32;;;;;;;12.00;7.90;;;7.30;97.00;;;;;;5092658;28;20950;-70
2021/03/15 05:23:59;;;;;;;9.40;8.50;;;7.30;96.90;;;;;;5093899;28;20883;-70
2021/03/15 05:26:27;;;;;;;10.47;8.30;;;7.30;96.90;;;;;;5093695;28;20451;-70
2021/03/15 05:28:54;;;;;;;9.63;8.20;;;7.30;96.90;;;;;;5093606;28;20516;-70
2021/03/15 05:31:22;;;;;;;10.10;7.63;;;7.30;96.90;;;;;;5093659;28;20444;-70
2021/03/15 05:33:49;;;;;;;8.10;7.30;;;7.30;96.80;;;;;;5093291;28;20444;-70
2021/03/15 05:36:16;;;;;;;8.50;7.10;;;7.30;96.70;;;;;;5093270;28;20446;-70
2021/03/15 05:38:43;;;;;;;9.27;6.97;;;7.20;96.60;;;;;;5093589;28;20459;-70
2021/03/15 05:41:13;;;;;;;7.87;7.07;;;7.20;96.70;;;;;;5093298;28;20444;-70
2021/03/15 05:44:11;;;;;;;9.80;7.40;;;7.20;96.80;;;;;;5093724;28;20479;-70
2021/03/15 05:46:58;;;;;;;8.73;7.00;;;7.20;96.70;;;;;;5093547;28;20498;-70
2021/03/15 05:49:44;;;;;;;8.50;7.00;;;7.20;96.80;;;;;;5093521;28;20495;-70
2021/03/15 05:52:26;;;;;;;7.47;6.70;;;7.20;97.10;;;;;;5093224;28;20435;-70
2021/03/15 05:55:22;;;;;;;7.43;6.70;;;7.10;96.70;;;;;;5093446;28;20439;-70
2021/03/15 05:58:30;;;;;;;7.60;6.77;;;7.20;96.70;;;;;;5093524;28;20428;-70
2021/03/15 06:01:10;;;;;;;8.47;7.03;;;7.20;96.70;;;;;;5093393;28;20477;-70
2021/03/15 06:04:21;;;;;;;8.53;7.17;;;7.20;96.70;;;;;;5093204;28;20466;-70
2021/03/15 06:06:48;;;;;;;10.37;7.90;;;7.20;96.50;;;;;;5030752;28;20459;-70
2021/03/15 06:09:20;;;;;;;9.60;8.30;;;7.20;96.60;;;;;;5084681;28;20882;-71
2021/03/15 06:11:49;;;;;;;8.40;7.53;;;7.20;96.70;;;;;;5092995;28;20862;-71
2021/03/15 06:14:15;;;;;;;10.23;7.80;;;7.20;96.60;;;;;;5093193;28;20436;-70
2021/03/15 06:16:43;;;;;;;8.17;7.37;;;7.30;96.60;;;;;;5093540;28;20446;-70
2021/03/15 06:19:12;;;;;;;8.63;7.63;;;7.30;96.50;;;;;;5093312;28;20466;-70
2021/03/15 06:21:41;;;;;;;8.10;7.30;;;7.30;96.40;;;;;;5093350;28;20870;-70
2021/03/15 06:24:08;;;;;;;8.30;7.10;;;7.30;96.40;;;;;;5093151;28;20483;-70
2021/03/15 06:26:34;;;;;;;9.07;8.10;;;7.40;96.50;;;;;;5093024;28;20785;-71
2021/03/15 06:29:01;;;;;;;9.27;7.80;;;7.40;96.40;;;;;;5092799;28;20978;-71
2021/03/15 06:31:30;;;;;;;10.20;9.20;;;7.40;96.50;;;;;;5093079;28;20443;-71
2021/03/15 06:33:58;;;;;;;9.80;8.67;;;7.50;96.40;;;;;;5096721;28;20439;-71
2021/03/15 06:36:24;;;;;;;10.30;8.57;;;7.50;96.40;;;;;;5096807;28;20446;-70
2021/03/15 06:38:52;;;;;;;13.17;9.87;;;7.50;96.30;;;;;;5096733;28;20459;-71
2021/03/15 06:41:20;;;;;;;10.40;9.20;;;7.50;96.30;;;;;;5096676;28;20443;-71
2021/03/15 06:43:47;;;;;;;12.97;10.03;;;7.50;96.40;;;;;;5096277;28;20996;-70
2021/03/15 06:46:15;;;;;;;11.00;9.23;;;7.50;96.40;;;;;;5096599;28;20497;-70
2021/03/15 06:48:42;;;;;;;11.20;8.60;;;7.60;96.40;;;;;;5096395;28;20543;-71
2021/03/15 06:51:09;;;;;;;14.80;9.97;;;7.60;96.30;;;;;;5097594;28;20443;-70
2021/03/15 06:53:37;;;;;;;9.83;8.77;;;7.60;96.40;;;;;;5096509;28;20420;-70
2021/03/15 06:56:09;;;;;;;13.27;8.70;;;7.60;96.50;;;;;;5096430;28;20444;-70
2021/03/15 06:58:36;;;;;;;9.10;7.70;;;7.70;96.10;;;;;;5096369;28;20471;-71
2021/03/15 07:01:13;;;;;;;11.80;9.10;;;7.70;96.00;;;;;;5096444;28;20450;-70
2021/03/15 07:03:40;;;;;;;10.53;8.50;;;7.70;95.90;;;;;;5096281;28;20474;-70
2021/03/15 07:06:07;;;;;;;12.93;8.30;;;7.70;95.80;;;;;;5097645;28;20580;-70
2021/03/15 07:08:34;;;;;;;11.90;10.53;;;7.80;95.80;;;;;;5097588;28;20467;-70
2021/03/15 07:11:01;;;;;;;13.63;8.57;;;7.80;95.70;;;;;;5096296;28;20436;-70
2021/03/15 07:13:33;;;;;;;13.40;8.83;;;7.80;95.70;;;;;;5096140;28;20436;-70
2021/03/15 07:15:59;;;;;;;12.70;8.73;;;7.80;95.60;;;;;;5095915;28;20428;-70
2021/03/15 07:18:27;;;;;;;10.37;7.50;;;7.90;95.50;;;;;;5096221;28;20428;-71
2021/03/15 07:20:55;;;;;;;10.43;8.53;;;7.90;95.40;;;;;;5096044;28;20481;-70
2021/03/15 07:23:38;;;;;;;12.20;7.90;;;7.90;95.30;;;;;;5095907;28;20482;-70
2021/03/15 07:26:10;;;;;;;14.27;8.00;;;7.90;95.00;;;;;;5095958;28;20431;-70
2021/03/15 07:28:37;;;;;;;11.20;8.27;;;7.90;94.90;;;;;;5095384;28;20846;-71
2021/03/15 07:31:25;;;;;;;13.63;8.87;;;7.90;94.80;;;;;;5095823;28;20449;-70
2021/03/15 07:34:11;;;;;;;10.67;8.30;;;8.00;94.90;;;;;;5095374;28;20417;-70
2021/03/15 07:36:55;;;;;;;10.97;7.83;;;8.00;95.00;;;;;;5095403;28;20961;-70
2021/03/15 07:39:24;;;;;;;11.50;8.10;;;8.00;94.90;;;;;;5095284;28;20973;-71
2021/03/15 07:41:52;;;;;;;14.17;8.17;;;8.00;95.10;;;;;;5095594;28;20445;-70
2021/03/15 07:44:21;;;;;;;14.53;8.47;;;8.10;95.00;;;;;;5094603;28;20484;-70
2021/03/15 07:46:48;;;;;;;10.33;8.43;;;8.10;94.90;;;;;;5095170;28;20440;-70
2021/03/15 07:49:25;;;;;;;11.83;8.30;;;8.10;94.40;;;;;;5095045;28;20455;-70
2021/03/15 07:51:53;;;;;;;13.60;7.50;;;8.10;94.00;;;;;;5095097;28;20906;-69
2021/03/15 07:54:32;;;;;;;8.87;7.90;;;8.10;94.10;;;;;;5095287;28;20436;-70
2021/03/15 07:57:23;;;;;;;15.57;9.00;;;8.20;94.10;;;;;;5095348;28;20427;-70
2021/03/15 07:59:51;;;;;;;13.17;8.67;;;8.20;94.30;;;;;;5095255;28;20471;-70
2021/03/15 08:02:22;;;;;;;12.00;7.60;;;8.30;94.40;;;;;;5095062;28;20821;-69
2021/03/15 08:04:49;;;;;;;9.70;8.00;;;8.40;94.00;;;;;;5095114;28;20432;-69
2021/03/15 08:07:17;;;;;;;12.03;8.30;;;8.50;94.00;;;;;;5095085;28;20436;-69
2021/03/15 08:09:46;;;;;;;13.83;7.83;;;8.60;94.40;;;;;;5094938;28;20462;-70
2021/03/15 08:12:15;;;;;;;12.03;7.50;;;8.70;94.30;;;;;;5094958;28;20852;-69
2021/03/15 08:14:46;;;;;;;13.73;8.13;;;8.80;93.00;;;;;;5094916;28;20489;-70
2021/03/15 08:17:17;;;;;;;12.57;8.90;;;8.80;92.70;;;;;;5094907;28;20836;-69
2021/03/15 08:19:45;;;;;;;11.97;8.70;;;8.90;92.70;;;;;;5094785;28;20832;-69
2021/03/15 08:22:13;;;;;;;9.70;8.03;;;8.90;93.00;;;;;;5094750;28;20443;-69
2021/03/15 08:24:41;;;;;;;12.83;8.90;;;9.10;93.20;;;;;;5094346;28;20490;-70
2021/03/15 08:27:08;;;;;;;11.97;8.23;;;9.20;92.90;;;;;;5094325;28;20814;-70
2021/03/15 08:29:39;;;;;;;10.73;8.90;;;9.30;92.00;;;;;;5094609;28;20464;-69
2021/03/15 08:32:06;;;;;;;10.23;9.17;;;9.40;92.00;;;;;;5094332;28;20435;-69
2021/03/15 08:34:36;;;;;;;11.27;8.90;;;9.50;92.00;;;;;;5094527;28;20436;-71
2021/03/15 08:37:02;;;;;;;10.60;9.00;;;9.60;91.60;;;;;;5094499;28;20443;-69
2021/03/15 08:39:40;;;;;;;14.47;9.27;;;9.60;91.00;;;;;;5094661;28;20459;-70
2021/03/15 08:42:25;;;;;;;13.10;9.30;;;9.70;90.90;;;;;;5094128;28;20420;-69
2021/03/15 08:44:51;;;;;;;11.73;9.43;;;9.70;90.80;;;;;;5094374;28;20448;-69
2021/03/15 08:47:52;;;;;;;11.33;8.97;;;9.60;90.60;;;;;;5094587;28;20485;-69
2021/03/15 08:50:43;;;;;;;9.83;8.83;;;9.60;90.40;;;;;;5094228;28;20521;-70
2021/03/15 08:53:10;;;;;;;14.70;8.40;;;9.60;90.30;;;;;;5094288;28;20842;-70
2021/03/15 08:55:47;;;;;;;13.97;7.80;;;9.70;90.00;;;;;;5094239;28;20439;-71
2021/03/15 08:58:40;;;;;;;12.70;6.90;;;9.60;88.00;;;;;;5094108;28;20440;-70
2021/03/15 09:01:08;;;;;;;10.97;7.43;;;9.60;88.60;;;;;;5094025;28;20481;-70
2021/03/15 09:03:56;;;;;;;11.23;7.13;;;9.40;88.90;;;;;;5093664;28;21011;-70
2021/03/15 09:06:50;;;;;;;8.43;6.50;;;9.40;90.00;;;;;;5089346;28;20546;-70
2021/03/15 09:09:25;;;;;;;18.70;7.80;;;9.50;89.80;;;;;;5093899;28;20509;-71
2021/03/15 09:11:53;;;;;;;12.90;6.00;;;9.50;89.80;;;;;;5093845;28;20438;-71
2021/03/15 09:14:37;;;;;;;7.87;5.73;;;9.40;88.70;;;;;;5093932;28;20430;-71
2021/03/15 09:17:33;;;;;;;11.30;5.93;;;9.40;89.10;;;;;;5093905;28;20438;-70
2021/03/15 09:20:18;;;;;;;8.33;5.53;;;9.30;88.90;;;;;;5093460;28;20977;-71
2021/03/15 09:22:45;;;;;;;7.43;5.40;;;9.20;89.80;;;;;;5093677;28;20567;-70
2021/03/15 09:25:21;;;;;;;8.60;4.90;;;9.20;90.00;;;;;;5093756;28;20443;-70
2021/03/15 09:27:53;;;;;;;10.20;5.20;;;9.20;90.00;;;;;;5093791;28;20427;-70
2021/03/15 09:30:23;;;;;;;12.63;5.60;;;9.20;90.00;;;;;;5093296;28;20459;-71
2021/03/15 09:32:50;;;;;;;13.30;5.70;;;9.30;90.10;;;;;;5093743;28;20431;-70
2021/03/15 09:35:23;;;;;;;14.40;5.33;;;9.40;89.60;;;;;;5093672;28;20444;-70
2021/03/15 09:37:52;;;;;;;7.10;5.90;;;9.50;89.70;;;;;;5093719;28;20428;-71
2021/03/15 09:40:21;;;;;;;11.03;6.60;;;9.60;89.40;;;;;;5093500;28;20517;-71
2021/03/15 09:42:47;;;;;;;10.77;4.70;;;9.70;88.70;;;;;;5093472;28;20470;-70
2021/03/15 09:45:24;;;;;;;7.20;4.30;;;9.90;87.10;;;;;;5093516;28;20840;-71
2021/03/15 09:47:51;;;;;;;10.00;3.37;;;10.10;84.70;;;;;;5093489;28;20451;-70
2021/03/15 09:50:20;;;;;;;16.53;4.00;;;10.30;82.60;;;;;;5093687;28;20484;-70
2021/03/15 09:52:47;;;;;;;8.53;3.93;;;10.40;80.20;;;;;;5093482;28;20533;-71
2021/03/15 09:55:13;;;;;;;7.33;4.40;;;10.50;80.00;;;;;;5093445;28;20439;-69
2021/03/15 09:57:40;;;;;;;9.70;4.43;;;10.40;79.60;;;;;;5094618;28;20443;-71
2021/03/15 10:00:09;;;;;;;8.13;4.30;;;10.30;79.90;;;;;;5094280;28;20470;-69
2021/03/15 10:02:37;;;;;;;11.23;5.07;;;10.20;80.30;;;;;;5093774;28;20440;-69
2021/03/15 10:05:04;;;;;;;12.20;5.80;;;10.00;80.60;;;;;;5093435;28;20785;-69
2021/03/15 10:07:31;;;;;;;11.40;5.17;;;10.10;83.30;;;;;;5094994;28;20426;-70
2021/03/15 10:10:07;;;;;;;7.70;4.10;;;10.30;82.90;;;;;;5096971;28;20985;-71
2021/03/15 10:12:33;;;;;;;10.77;4.10;;;10.50;81.60;;;;;;5097079;28;20841;-69
2021/03/15 10:15:00;;;;;;;10.43;4.43;;;10.90;78.50;;;;;;5097352;28;20432;-70
2021/03/15 10:17:26;;;;;;;11.40;4.27;;;11.20;77.20;;;;;;5097299;28;20427;-71
2021/03/15 10:19:53;;;;;;;7.23;3.50;;;11.80;77.10;;;;;;5097107;28;20486;-70
2021/03/15 10:22:21;;;;;;;11.50;3.37;;;12.20;74.30;;;;;;5097446;28;20435;-70
2021/03/15 10:24:49;;;;;;;8.67;2.70;;;12.50;72.10;;;;;;5096983;28;20476;-70
2021/03/15 10:27:18;;;;;;;6.70;2.20;;;12.60;69.20;;;;;;5096995;28;20446;-70
2021/03/15 10:29:50;;;;;;;6.33;2.80;;;12.40;67.60;;;;;;5096871;28;20463;-70
2021/03/15 10:32:20;;;;;;;8.33;2.47;;;12.10;68.00;;;;;;5096924;28;20428;-70
2021/03/15 10:34:55;;;;;;;4.20;2.40;;;11.80;69.80;;;;;;5096531;28;20949;-71
2021/03/15 10:37:22;;;;;;;8.80;3.07;;;11.50;70.80;;;;;;5096649;28;20901;-71
2021/03/15 10:39:49;;;;;;;7.80;2.90;;;11.30;73.90;;;;;;5096631;28;21000;-71
2021/03/15 10:42:18;;;;;;;11.33;2.93;;;11.10;75.90;;;;;;5096774;28;20564;-70
2021/03/15 10:44:44;;;;;;;3.07;1.53;;;10.90;77.40;;;;;;5096312;28;21018;-70
2021/03/15 10:47:11;;;;;;;2.50;0.90;;;10.60;78.70;;;;;;5096338;28;20799;-70
2021/03/15 10:49:37;;;;;;;1.10;0.87;;;10.40;78.30;;;;;;5096542;28;20468;-70
2021/03/15 10:52:05;;;;;;;1.33;0.90;;;10.20;78.00;;;;;;5096188;28;20855;-69
2021/03/15 10:54:34;;;;;;;4.57;1.10;;;10.20;79.30;;;;;;5096560;28;20427;-70
2021/03/15 10:57:17;;;;;;;5.27;1.60;;;10.50;81.00;;;;;;5096423;28;20526;-70
2021/03/15 10:59:44;;;;;;;3.40;1.17;;;11.10;80.20;;;;;;5096408;28;20497;-70
2021/03/15 11:02:11;;;;;;;4.37;2.00;;;11.70;76.00;;;;;;5096369;28;20443;-70
2021/03/15 11:04:39;;;;;;;5.97;1.40;;;11.80;73.70;;;;;;5096221;28;20475;-70
2021/03/15 11:07:19;;;;;;;4.50;1.53;;;11.80;73.70;;;;;;5095893;28;20455;-70
2021/03/15 11:10:00;;;;;;;6.37;1.80;;;12.30;74.30;;;;;;5096177;28;20828;-70
2021/03/15 11:12:31;;;;;;;9.70;1.60;;;12.90;69.90;;;;;;5096126;28;20453;-71
2021/03/15 11:15:12;;;;;;;4.53;1.53;;;13.70;67.00;;;;;;5096105;28;20443;-71
2021/03/15 11:17:39;;;;;;;7.93;2.10;;;14.30;63.10;;;;;;5096011;28;20451;-70
2021/03/15 11:20:08;;;;;;;1.80;1.10;;;15.00;59.80;;;;;;5094702;28;20491;-71
2021/03/15 11:22:49;;;;;;;4.40;1.20;;;15.60;58.20;;;;;;5095872;28;20466;-71
2021/03/15 11:25:17;;;;;;;4.83;1.87;;;16.20;56.50;;;;;;5095921;28;20825;-70
2021/03/15 11:27:47;;;;;;;5.47;2.27;;;16.60;54.90;;;;;;5095587;28;20424;-71
2021/03/15 11:30:25;;;;;;;3.47;1.30;;;17.20;55.00;;;;;;5095770;28;20521;-71
2021/03/15 11:33:03;;;;;;;4.93;2.33;;;17.60;52.50;;;;;;5095416;28;20837;-71
2021/03/15 11:35:29;;;;;;;3.57;1.40;;;18.20;51.20;;;;;;5095614;28;20448;-72
2021/03/15 11:37:58;;;;;;;4.83;1.40;;;18.60;46.90;;;;;;5095654;28;20443;-72
2021/03/15 11:40:36;;;;;;;5.07;1.70;;;18.90;45.50;;;;;;5095562;28;20463;-72
2021/03/15 11:43:02;;;;;;;4.93;1.80;;;19.30;46.20;;;;;;5095237;28;20961;-72
2021/03/15 11:45:29;;;;;;;4.40;1.67;;;19.80;45.00;;;;;;5095533;28;20433;-71
2021/03/15 11:47:56;;;;;;;3.03;1.53;;;20.50;44.50;;;;;;5095128;28;20934;-71
2021/03/15 11:50:24;;;;;;;4.57;1.70;;;20.90;42.40;;;;;;5095315;28;20464;-71
2021/03/15 11:52:51;;;;;;;4.80;1.83;;;20.90;41.20;;;;;;5095042;28;20938;-71
2021/03/15 11:55:19;;;;;;;5.83;2.00;;;20.60;41.10;;;;;;5095023;28;20823;-72
2021/03/15 11:57:46;;;;;;;3.33;1.63;;;20.40;42.40;;;;;;5094908;28;20934;-72
2021/03/15 12:00:14;;;;;;;5.00;1.33;;;20.20;42.40;;;;;;5095080;28;20464;-72
2021/03/15 12:02:41;;;;;;;9.00;2.20;;;19.60;42.60;;;;;;5095061;28;20432;-71
2021/03/15 12:05:10;;;;;;;4.07;1.40;;;18.60;43.20;;;;;;5094991;28;20432;-72
2021/03/15 12:07:36;;;;;;;6.33;2.17;;;17.50;45.40;;;;;;5095039;28;20432;-72
2021/03/15 12:10:04;;;;;;;7.40;1.73;;;16.70;48.40;;;;;;5095167;28;20472;-72
2021/03/15 12:12:31;;;;;;;7.40;2.37;;;16.20;49.70;;;;;;5095218;28;20497;-71
2021/03/15 12:14:58;;;;;;;5.33;1.90;;;16.00;50.00;;;;;;5094890;28;20436;-71
2021/03/15 12:17:24;;;;;;;4.27;1.90;;;16.70;50.40;;;;;;5094478;28;20937;-72
2021/03/15 12:19:50;;;;;;;6.30;2.10;;;17.70;46.00;;;;;;5094474;28;20982;-72
2021/03/15 12:22:16;;;;;;;9.37;2.00;;;18.60;42.90;;;;;;5094747;28;20505;-72
2021/03/15 12:24:43;;;;;;;4.10;1.83;;;19.40;41.80;;;;;;5094382;28;20502;-72
2021/03/15 12:27:09;;;;;;;5.50;1.93;;;19.80;41.20;;;;;;5094763;28;20435;-71
2021/03/15 12:29:37;;;;;;;6.00;1.80;;;19.60;40.90;;;;;;5094280;28;20467;-72
2021/03/15 12:32:03;;;;;;;7.60;1.50;;;18.90;40.80;;;;;;5094371;28;20872;-72
2021/03/15 12:34:29;;;;;;;5.67;1.40;;;18.00;41.60;;;;;;5094292;28;20916;-71
2021/03/15 12:36:56;;;;;;;7.30;1.80;;;17.20;44.60;;;;;;5094424;28;20450;-71
2021/03/15 12:39:25;;;;;;;4.70;1.60;;;16.20;46.60;;;;;;5094443;28;20478;-73
2021/03/15 12:41:51;;;;;;;8.37;1.97;;;15.60;48.20;;;;;;5094129;28;20782;-73
2021/03/15 12:44:17;;;;;;;6.43;1.80;;;15.70;49.60;;;;;;5094303;28;20464;-72
2021/03/15 12:46:44;;;;;;;3.50;1.70;;;16.00;48.50;;;;;;5094328;28;20459;-72
2021/03/15 12:49:11;;;;;;;8.83;2.37;;;16.00;48.10;;;;;;5093905;28;20475;-72
2021/03/15 12:51:38;;;;;;;4.97;1.63;;;15.80;48.70;;;;;;5094189;28;20436;-72
2021/03/15 12:54:05;;;;;;;2.50;1.63;;;15.60;47.90;;;;;;5093911;28;21006;-72
2021/03/15 12:56:32;;;;;;;4.60;2.00;;;15.60;48.60;;;;;;5094190;28;20796;-72
2021/03/15 12:58:58;;;;;;;5.70;1.40;;;15.60;48.40;;;;;;5094049;28;20468;-72
2021/03/15 13:01:24;;;;;;;4.43;1.70;;;16.20;47.10;;;;;;5094039;28;20439;-72
2021/03/15 13:03:53;;;;;;;2.50;0.87;;;17.30;44.60;;;;;;5093968;28;20486;-72